Time;durP1;ratioP1;P1;durP2;ratioP2;P2;SDS_P1;SDS_P2;PMS_P1;PMS_P2;Temp;Humidity;BMP_temperature;BMP_pressure;BME280_temperature;BME280_humidity;BME280_pressure;Samples;Min_cycle;Max_cycle;Signal;HPM_P1;HPM_P2
2023/10/19 00:00:44;;;;;;;34.13;21.40;;;13.90;99.90;;;;;;5036863;28;20025;-72
2023/10/19 00:03:11;;;;;;;34.72;21.77;;;13.90;99.90;;;;;;5042613;28;20020;-70
2023/10/19 00:05:38;;;;;;;32.95;22.30;;;14.00;99.90;;;;;;5024410;28;20490;-70
2023/10/19 00:08:17;;;;;;;32.72;21.58;;;14.00;99.90;;;;;;5037801;28;20017;-71
2023/10/19 00:10:47;;;;;;;30.55;21.90;;;14.20;99.90;;;;;;5036566;28;20029;-69
2023/10/19 00:13:14;;;;;;;36.05;23.33;;;14.20;99.90;;;;;;5039604;28;20035;-70
2023/10/19 00:15:51;;;;;;;39.42;25.08;;;14.30;99.90;;;;;;5041709;28;20029;-70
2023/10/19 00:23:13;;;;;;;42.22;22.90;;;14.20;99.90;;;;;;5039156;28;20044;-69
2023/10/19 00:25:41;;;;;;;45.55;22.45;;;14.20;99.90;;;;;;5037408;28;20036;-70
2023/10/19 00:28:08;;;;;;;35.17;22.35;;;14.20;99.90;;;;;;5039199;28;20091;-69
2023/10/19 00:30:37;;;;;;;44.00;22.52;;;14.30;99.90;;;;;;5040867;28;20021;-70
2023/10/19 00:33:15;;;;;;;45.90;25.88;;;14.40;99.90;;;;;;5037308;28;20021;-70
2023/10/19 00:35:50;;;;;;;35.47;23.45;;;14.40;99.90;;;;;;5037284;28;20021;-70
2023/10/19 00:38:38;;;;;;;38.90;23.08;;;14.40;99.90;;;;;;5038313;28;20044;-69
2023/10/19 00:43:43;;;;;;;40.90;23.70;;;14.40;99.90;;;;;;5043529;28;20059;-70
2023/10/19 00:48:46;;;;;;;50.90;24.90;;;14.60;99.90;;;;;;5040563;28;20037;-69
2023/10/19 00:54:15;;;;;;;52.10;25.35;;;14.70;99.90;;;;;;5027700;28;20033;-71
2023/10/19 00:56:51;;;;;;;26.98;19.65;;;14.70;99.90;;;;;;5040077;28;20103;-70
2023/10/19 01:01:53;;;;;;;38.55;22.27;;;14.70;99.90;;;;;;5042960;28;20059;-69
2023/10/19 01:04:23;;;;;;;31.03;19.63;;;14.70;99.90;;;;;;5019735;28;20389;-70
2023/10/19 01:07:12;;;;;;;29.67;18.30;;;14.80;99.90;;;;;;5038203;28;20271;-69
2023/10/19 01:09:38;;;;;;;14.32;10.02;;;14.80;99.90;;;;;;5037910;28;20034;-70
2023/10/19 01:15:12;;;;;;;21.02;12.15;;;15.00;99.90;;;;;;5039518;28;20044;-69
2023/10/19 01:17:38;;;;;;;15.73;11.18;;;15.10;99.90;;;;;;5038554;28;20041;-70
2023/10/19 01:20:19;;;;;;;18.38;10.23;;;15.20;99.90;;;;;;5036548;28;20025;-69
2023/10/19 01:25:44;;;;;;;12.75;8.27;;;15.20;99.90;;;;;;5036569;28;20504;-69
2023/10/19 01:28:10;;;;;;;17.48;9.88;;;15.30;99.90;;;;;;5037363;28;20548;-69
2023/10/19 01:30:38;;;;;;;33.13;15.95;;;15.30;99.90;;;;;;5036974;28;20025;-70
2023/10/19 01:33:08;;;;;;;37.45;19.30;;;15.30;99.90;;;;;;5036646;28;20029;-70
2023/10/19 01:38:18;;;;;;;31.65;17.75;;;15.10;99.90;;;;;;5037583;28;20699;-69
2023/10/19 01:40:46;;;;;;;23.92;12.73;;;15.10;99.90;;;;;;5036934;28;20025;-70
2023/10/19 01:43:21;;;;;;;20.20;12.88;;;15.10;99.90;;;;;;5039309;28;20029;-70
2023/10/19 01:45:47;;;;;;;22.02;13.43;;;15.20;99.90;;;;;;5021253;28;20469;-70
2023/10/19 01:48:15;;;;;;;26.10;15.93;;;15.30;99.90;;;;;;5039442;28;20028;-70
2023/10/19 01:50:41;;;;;;;52.88;22.17;;;15.30;99.90;;;;;;5039495;28;20025;-71
2023/10/19 01:53:15;;;;;;;29.80;16.05;;;15.30;99.90;;;;;;5034939;28;20024;-70
2023/10/19 01:55:44;;;;;;;25.88;13.25;;;15.20;99.90;;;;;;5021272;28;20020;-70
2023/10/19 01:58:10;;;;;;;14.07;9.98;;;15.30;99.90;;;;;;5036361;28;20124;-70
2023/10/19 02:00:39;;;;;;;12.50;7.95;;;15.30;99.90;;;;;;5038627;28;20386;-69
2023/10/19 02:03:08;;;;;;;14.27;8.48;;;15.40;99.90;;;;;;5034718;28;20029;-69
2023/10/19 02:05:41;;;;;;;14.27;8.48;;;15.40;99.90;;;;;;5042056;28;20051;-70
2023/10/19 02:08:07;;;;;;;11.25;6.88;;;15.50;99.90;;;;;;5039676;28;20496;-69
2023/10/19 02:10:35;;;;;;;9.13;6.15;;;15.50;99.90;;;;;;5043245;28;20021;-70
2023/10/19 02:13:06;;;;;;;10.80;6.75;;;15.60;99.90;;;;;;5025344;28;20025;-69
2023/10/19 02:15:35;;;;;;;10.73;6.78;;;15.60;99.90;;;;;;5044453;28;20371;-70
2023/10/19 02:18:03;;;;;;;8.75;6.63;;;15.60;99.90;;;;;;5043694;28;20022;-70
2023/10/19 02:20:29;;;;;;;10.55;6.40;;;15.60;99.90;;;;;;5041447;28;20029;-70
2023/10/19 02:22:57;;;;;;;12.88;6.88;;;15.70;99.90;;;;;;5045478;28;20009;-71
2023/10/19 02:25:25;;;;;;;11.43;8.00;;;15.70;99.90;;;;;;5028871;28;20064;-70
2023/10/19 02:27:52;;;;;;;8.68;7.05;;;15.70;99.90;;;;;;5044440;28;20163;-70
2023/10/19 02:30:17;;;;;;;11.82;6.85;;;15.80;99.90;;;;;;5043333;28;20173;-70
2023/10/19 02:32:43;;;;;;;8.13;5.47;;;15.80;99.90;;;;;;5041774;28;20559;-70
2023/10/19 02:35:09;;;;;;;9.75;5.93;;;15.80;99.90;;;;;;5047105;28;20025;-69
2023/10/19 02:37:35;;;;;;;9.85;5.70;;;15.70;99.90;;;;;;5043064;28;20107;-70
2023/10/19 02:40:01;;;;;;;9.25;5.60;;;15.80;99.90;;;;;;5040907;28;20029;-70
2023/10/19 02:42:26;;;;;;;8.52;4.90;;;15.80;99.90;;;;;;5042145;28;20029;-69
2023/10/19 02:44:52;;;;;;;9.75;5.03;;;15.80;99.90;;;;;;5043141;28;20038;-69
2023/10/19 02:47:18;;;;;;;9.63;4.80;;;15.80;99.90;;;;;;5042948;28;20070;-69
2023/10/19 02:49:50;;;;;;;9.38;5.13;;;15.80;99.90;;;;;;5043170;28;20493;-69
2023/10/19 02:52:16;;;;;;;13.43;4.93;;;15.80;99.90;;;;;;5043485;28;20025;-70
2023/10/19 02:54:42;;;;;;;16.15;5.00;;;15.80;99.90;;;;;;5040464;28;20029;-70
2023/10/19 02:57:09;;;;;;;9.45;3.90;;;15.80;99.90;;;;;;5039782;28;20030;-70
2023/10/19 02:59:35;;;;;;;12.00;4.00;;;15.80;99.90;;;;;;5042420;28;20033;-70
2023/10/19 03:04:36;;;;;;;10.85;4.50;;;15.80;99.90;;;;;;5044530;28;20045;-70
2023/10/19 03:07:07;;;;;;;8.57;3.95;;;15.80;99.90;;;;;;5024787;28;20382;-70
2023/10/19 03:09:36;;;;;;;6.95;3.55;;;15.80;99.90;;;;;;5038192;28;20028;-70
2023/10/19 03:12:04;;;;;;;8.25;3.22;;;15.80;99.90;;;;;;5027381;28;20021;-71
2023/10/19 03:14:30;;;;;;;13.88;3.45;;;15.80;99.90;;;;;;5023947;28;20139;-71
2023/10/19 03:16:59;;;;;;;9.13;3.40;;;15.80;99.90;;;;;;5041530;28;20085;-70
2023/10/19 03:19:25;;;;;;;8.98;3.00;;;15.80;99.90;;;;;;5042012;28;20386;-70
2023/10/19 03:21:51;;;;;;;7.70;3.45;;;15.90;99.90;;;;;;5041671;28;20021;-71
2023/10/19 03:24:36;;;;;;;10.35;3.08;;;15.90;99.90;;;;;;5040624;28;20033;-70
2023/10/19 03:27:12;;;;;;;14.93;3.05;;;15.90;99.90;;;;;;5037448;28;20104;-69
2023/10/19 03:29:45;;;;;;;8.15;2.90;;;15.90;99.90;;;;;;5039100;28;20017;-70
2023/10/19 03:32:12;;;;;;;10.57;2.25;;;15.90;99.90;;;;;;5039263;28;20056;-69
2023/10/19 03:34:38;;;;;;;8.20;2.67;;;15.90;99.90;;;;;;5038279;28;20905;-69
2023/10/19 03:37:12;;;;;;;7.03;2.90;;;15.80;99.90;;;;;;5042053;28;20067;-70
2023/10/19 03:39:38;;;;;;;9.07;3.10;;;15.90;99.90;;;;;;5041404;28;20028;-70
2023/10/19 03:42:07;;;;;;;17.13;3.58;;;15.90;99.90;;;;;;5026427;28;20044;-70
2023/10/19 03:47:25;;;;;;;11.82;3.08;;;15.80;99.90;;;;;;5042048;28;20032;-70
2023/10/19 03:49:51;;;;;;;10.73;2.85;;;15.80;99.90;;;;;;5040798;28;20099;-70
2023/10/19 03:54:43;;;;;;;9.00;2.72;;;15.80;99.90;;;;;;5040322;28;20029;-70
2023/10/19 03:57:19;;;;;;;10.48;3.40;;;15.70;99.90;;;;;;5040028;28;20025;-70
2023/10/19 03:59:46;;;;;;;10.52;2.92;;;15.80;99.90;;;;;;5041295;28;20489;-70
2023/10/19 04:02:13;;;;;;;11.13;3.30;;;15.70;99.90;;;;;;5044459;28;20021;-70
2023/10/19 04:04:43;;;;;;;7.03;2.90;;;15.70;99.90;;;;;;5042702;28;20104;-70
2023/10/19 04:07:21;;;;;;;8.45;2.95;;;15.70;99.90;;;;;;5041973;28;20045;-69
2023/10/19 04:10:04;;;;;;;10.20;3.47;;;15.70;99.90;;;;;;5039327;28;20076;-69
2023/10/19 04:12:35;;;;;;;;;;;15.70;99.90;;;;;;5025275;28;20040;-70
2023/10/19 04:15:18;;;;;;;9.95;2.85;;;15.70;99.90;;;;;;5036891;28;19923;-71
2023/10/19 04:17:45;;;;;;;9.40;2.92;;;15.70;99.90;;;;;;5043115;28;20103;-69
2023/10/19 04:22:44;;;;;;;11.35;3.00;;;15.70;99.90;;;;;;5039713;28;20036;-70
2023/10/19 04:25:13;;;;;;;8.75;2.67;;;15.70;99.90;;;;;;5038226;28;20021;-69
2023/10/19 04:27:43;;;;;;;10.10;2.78;;;15.60;99.90;;;;;;5041871;28;20057;-69
2023/10/19 04:30:27;;;;;;;13.85;3.10;;;15.60;99.90;;;;;;5040051;28;20047;-69
2023/10/19 04:32:55;;;;;;;17.08;3.55;;;15.60;99.90;;;;;;5039943;28;20025;-69
2023/10/19 04:35:21;;;;;;;8.88;3.05;;;15.60;99.90;;;;;;5041102;28;20096;-69
2023/10/19 04:37:53;;;;;;;10.45;3.00;;;15.60;99.90;;;;;;5038381;28;20075;-70
2023/10/19 04:40:21;;;;;;;11.35;3.50;;;15.60;99.90;;;;;;5039161;28;20029;-70
2023/10/19 04:42:47;;;;;;;9.85;3.33;;;15.60;99.90;;;;;;5041553;28;20017;-69
2023/10/19 04:45:13;;;;;;;11.98;3.17;;;15.60;99.90;;;;;;5022550;28;20052;-69
2023/10/19 04:47:39;;;;;;;14.10;3.88;;;15.50;99.90;;;;;;5040358;28;20028;-69
2023/10/19 04:50:06;;;;;;;11.65;3.80;;;15.50;99.90;;;;;;5035375;28;20501;-70
2023/10/19 04:52:33;;;;;;;6.25;2.95;;;15.60;99.90;;;;;;5043543;28;20036;-71
2023/10/19 04:55:01;;;;;;;7.88;3.00;;;15.60;99.90;;;;;;5023332;28;20559;-70
2023/10/19 04:57:26;;;;;;;9.15;3.25;;;15.60;99.90;;;;;;5040837;28;20060;-70
2023/10/19 04:59:52;;;;;;;10.30;3.30;;;15.60;99.90;;;;;;5040557;28;20057;-70
2023/10/19 05:02:18;;;;;;;9.95;3.10;;;15.60;99.90;;;;;;5039266;28;20029;-70
2023/10/19 05:04:45;;;;;;;8.35;3.38;;;15.60;99.90;;;;;;5038809;28;20505;-69
2023/10/19 05:07:17;;;;;;;10.95;3.75;;;15.60;99.90;;;;;;5037408;28;20109;-69
2023/10/19 05:09:44;;;;;;;12.18;3.42;;;15.60;99.90;;;;;;5043579;28;20092;-69
2023/10/19 05:12:11;;;;;;;14.23;4.18;;;15.60;99.90;;;;;;5042076;28;20039;-70
2023/10/19 05:14:37;;;;;;;18.02;3.42;;;15.50;99.90;;;;;;5037919;28;20469;-69
2023/10/19 05:17:07;;;;;;;9.88;3.72;;;15.50;99.90;;;;;;5038343;28;20032;-70
2023/10/19 05:19:33;;;;;;;14.50;3.60;;;15.60;99.90;;;;;;5035157;28;20025;-69
2023/10/19 05:22:08;;;;;;;18.40;4.25;;;15.50;99.90;;;;;;5040271;28;20074;-69
2023/10/19 05:24:35;;;;;;;11.63;4.28;;;15.50;99.90;;;;;;5040588;28;20505;-70
2023/10/19 05:27:01;;;;;;;15.27;4.10;;;15.50;99.90;;;;;;5017257;28;20030;-70
2023/10/19 05:29:27;;;;;;;18.63;4.03;;;15.50;99.90;;;;;;5043607;28;20775;-69
2023/10/19 05:31:54;;;;;;;14.23;4.40;;;15.50;99.90;;;;;;5039657;28;20075;-70
2023/10/19 05:34:23;;;;;;;19.05;4.20;;;15.60;99.90;;;;;;5035662;28;20017;-70
2023/10/19 05:36:49;;;;;;;14.77;3.28;;;15.60;99.90;;;;;;5038791;28;20508;-70
2023/10/19 05:39:16;;;;;;;13.32;3.55;;;15.60;99.90;;;;;;5037079;28;20036;-70
2023/10/19 05:41:42;;;;;;;8.93;3.67;;;15.60;99.90;;;;;;5038664;28;20028;-73
2023/10/19 05:44:08;;;;;;;15.63;3.53;;;15.60;99.90;;;;;;5038120;28;20021;-70
2023/10/19 05:46:34;;;;;;;11.38;4.47;;;15.60;99.90;;;;;;5036223;28;20068;-71
2023/10/19 05:49:01;;;;;;;14.57;3.90;;;15.60;99.90;;;;;;5041088;28;20060;-70
2023/10/19 05:51:27;;;;;;;13.18;3.90;;;15.60;99.90;;;;;;5040112;28;20421;-70
2023/10/19 05:53:54;;;;;;;14.95;4.15;;;15.70;99.90;;;;;;5041632;28;20079;-70
2023/10/19 05:56:21;;;;;;;12.32;4.30;;;15.70;99.90;;;;;;5038639;28;20024;-69
2023/10/19 05:58:50;;;;;;;16.33;4.20;;;15.70;99.90;;;;;;5037396;28;20043;-71
2023/10/19 06:01:17;;;;;;;14.38;4.03;;;15.70;99.90;;;;;;5040521;28;20061;-69
2023/10/19 06:03:43;;;;;;;8.52;4.10;;;15.70;99.90;;;;;;5038343;28;20074;-69
2023/10/19 06:06:09;;;;;;;14.27;4.38;;;15.70;99.90;;;;;;5038867;28;20029;-69
2023/10/19 06:08:35;;;;;;;12.98;3.80;;;15.70;99.90;;;;;;5039643;28;20072;-69
2023/10/19 06:11:02;;;;;;;14.98;3.92;;;15.70;99.90;;;;;;5038865;28;20045;-70
2023/10/19 06:13:29;;;;;;;21.45;5.32;;;15.70;99.90;;;;;;5022617;28;20029;-69
2023/10/19 06:15:55;;;;;;;13.90;4.63;;;15.70;99.90;;;;;;5023485;28;20029;-71
2023/10/19 06:18:21;;;;;;;19.38;4.15;;;15.70;99.90;;;;;;5040996;28;20072;-69
2023/10/19 06:20:47;;;;;;;19.23;5.80;;;15.80;99.90;;;;;;5037342;28;20021;-70
2023/10/19 06:23:13;;;;;;;16.95;5.70;;;15.80;99.90;;;;;;5035511;28;20786;-69
2023/10/19 06:25:42;;;;;;;9.93;5.45;;;15.80;99.90;;;;;;5018929;28;20029;-70
2023/10/19 06:28:08;;;;;;;19.08;4.20;;;15.80;99.90;;;;;;5036343;28;20075;-70
2023/10/19 06:30:34;;;;;;;12.35;4.57;;;15.80;99.90;;;;;;5039771;28;20433;-70
2023/10/19 06:33:01;;;;;;;18.38;4.55;;;15.80;99.90;;;;;;5038476;28;20096;-69
2023/10/19 06:35:28;;;;;;;17.27;5.32;;;15.80;99.90;;;;;;5040559;28;20120;-71
2023/10/19 06:37:57;;;;;;;13.88;4.22;;;15.80;99.90;;;;;;5038326;28;20025;-69
2023/10/19 06:40:23;;;;;;;12.23;4.93;;;15.80;99.90;;;;;;5041039;28;20033;-72
2023/10/19 06:42:49;;;;;;;10.95;4.22;;;15.80;99.90;;;;;;5020052;28;20032;-69
2023/10/19 06:45:18;;;;;;;15.50;4.38;;;15.80;99.90;;;;;;5037463;28;20538;-69
2023/10/19 06:47:47;;;;;;;20.98;4.20;;;15.90;99.90;;;;;;5039954;28;20060;-69
2023/10/19 06:50:18;;;;;;;12.98;3.45;;;15.90;99.90;;;;;;5042077;28;20550;-70
2023/10/19 06:52:46;;;;;;;15.20;3.67;;;15.90;99.90;;;;;;5043143;28;20034;-70
2023/10/19 06:55:22;;;;;;;14.40;3.75;;;15.90;99.90;;;;;;5026082;28;20386;-70
2023/10/19 06:57:53;;;;;;;14.38;3.80;;;15.90;99.90;;;;;;5043833;28;20068;-71
2023/10/19 07:00:22;;;;;;;18.20;4.20;;;16.00;99.90;;;;;;5040200;28;20465;-69
2023/10/19 07:02:51;;;;;;;15.23;3.90;;;16.00;99.90;;;;;;5022008;28;20094;-70
2023/10/19 07:05:29;;;;;;;14.80;4.07;;;16.00;99.90;;;;;;5025194;28;20021;-70
2023/10/19 07:07:56;;;;;;;13.13;4.13;;;16.10;99.90;;;;;;5043435;28;20025;-70
2023/10/19 07:10:23;;;;;;;12.25;3.65;;;16.00;99.90;;;;;;5044125;28;20029;-69
2023/10/19 07:12:54;;;;;;;14.23;4.57;;;16.10;99.90;;;;;;5041704;28;20094;-70
2023/10/19 07:15:22;;;;;;;14.07;3.88;;;16.10;99.90;;;;;;5043515;28;20466;-75
2023/10/19 07:17:48;;;;;;;13.57;4.30;;;16.10;99.90;;;;;;5023592;28;20447;-68
2023/10/19 07:20:26;;;;;;;18.10;4.35;;;16.10;99.90;;;;;;5041636;28;20040;-68
2023/10/19 07:22:53;;;;;;;19.00;4.30;;;16.10;99.90;;;;;;5043671;28;20021;-68
2023/10/19 07:25:21;;;;;;;11.88;4.50;;;16.10;99.90;;;;;;5042441;28;20033;-69
2023/10/19 07:27:48;;;;;;;14.13;4.13;;;16.10;99.90;;;;;;5038952;28;20091;-70
2023/10/19 07:30:15;;;;;;;20.42;4.45;;;16.10;99.90;;;;;;5040612;28;20474;-69
2023/10/19 07:32:41;;;;;;;13.30;4.50;;;16.20;99.90;;;;;;5042683;28;20026;-69
2023/10/19 07:35:07;;;;;;;9.75;3.95;;;16.20;99.90;;;;;;5040360;28;20023;-71
2023/10/19 07:37:33;;;;;;;13.85;4.20;;;16.20;99.90;;;;;;5028317;28;20390;-71
2023/10/19 07:39:59;;;;;;;11.88;3.67;;;16.20;99.90;;;;;;5041596;28;20029;-69
2023/10/19 07:42:25;;;;;;;14.85;3.90;;;16.20;99.90;;;;;;5038532;28;20091;-68
2023/10/19 07:44:51;;;;;;;12.10;4.13;;;16.20;99.90;;;;;;5023782;28;20382;-69
2023/10/19 07:47:17;;;;;;;11.60;3.55;;;16.30;99.90;;;;;;5039846;28;20029;-69
2023/10/19 07:49:43;;;;;;;11.38;4.20;;;16.30;99.90;;;;;;5042523;28;20013;-69
2023/10/19 07:52:14;;;;;;;10.18;3.95;;;16.30;99.90;;;;;;5039615;28;20032;-69
2023/10/19 07:54:40;;;;;;;12.20;3.40;;;16.30;99.90;;;;;;5040139;28;20028;-68
2023/10/19 07:57:06;;;;;;;8.13;3.20;;;16.30;99.90;;;;;;5042140;28;20029;-69
2023/10/19 07:59:35;;;;;;;14.25;3.80;;;16.30;99.90;;;;;;5041750;28;20405;-69
2023/10/19 08:02:04;;;;;;;17.48;3.22;;;16.30;99.90;;;;;;5036854;28;20079;-69
2023/10/19 08:04:30;;;;;;;13.00;3.50;;;16.30;99.90;;;;;;5039999;28;20482;-70
2023/10/19 08:07:00;;;;;;;13.00;3.83;;;16.30;99.90;;;;;;5043474;28;21623;-70
2023/10/19 08:09:31;;;;;;;13.43;3.67;;;16.40;99.90;;;;;;5035794;28;20017;-71
2023/10/19 08:11:59;;;;;;;14.93;2.90;;;16.40;99.90;;;;;;5036541;28;20494;-69
2023/10/19 08:14:27;;;;;;;9.80;2.58;;;16.40;99.90;;;;;;5043107;28;20025;-71
2023/10/19 08:16:53;;;;;;;13.60;2.85;;;16.50;99.90;;;;;;5023329;28;20090;-70
2023/10/19 08:19:19;;;;;;;10.35;2.80;;;16.60;99.90;;;;;;5041019;28;20573;-70
2023/10/19 08:21:46;;;;;;;12.48;3.58;;;16.60;99.90;;;;;;5041145;28;20017;-70
2023/10/19 08:24:17;;;;;;;9.65;2.90;;;16.60;99.90;;;;;;5043613;28;20096;-70
2023/10/19 08:26:45;;;;;;;13.98;2.70;;;16.70;99.90;;;;;;5021941;28;20032;-70
2023/10/19 08:29:13;;;;;;;10.43;3.10;;;16.70;99.90;;;;;;5039065;28;20059;-71
2023/10/19 08:31:41;;;;;;;6.47;2.80;;;16.70;99.90;;;;;;5023436;28;20091;-70
2023/10/19 08:34:09;;;;;;;8.15;2.50;;;16.70;99.90;;;;;;5040923;28;20438;-72
2023/10/19 08:36:37;;;;;;;9.07;2.45;;;16.70;99.90;;;;;;5024365;28;20355;-70
2023/10/19 08:39:05;;;;;;;7.95;2.70;;;16.80;99.90;;;;;;5037268;28;20067;-70
2023/10/19 08:41:37;;;;;;;16.65;2.63;;;16.90;99.90;;;;;;5038156;28;20025;-72
2023/10/19 08:44:17;;;;;;;9.43;2.30;;;17.00;99.90;;;;;;5020278;28;20091;-71
2023/10/19 08:46:44;;;;;;;8.30;2.33;;;17.10;99.90;;;;;;5040706;28;20017;-70
2023/10/19 08:49:13;;;;;;;10.77;2.75;;;17.10;99.90;;;;;;5042512;28;20080;-70
2023/10/19 08:51:41;;;;;;;13.57;3.10;;;17.20;99.90;;;;;;5038733;28;20056;-71
2023/10/19 08:54:10;;;;;;;8.25;2.75;;;17.20;99.90;;;;;;5020407;28;20404;-71
2023/10/19 08:56:37;;;;;;;12.73;2.72;;;17.30;99.90;;;;;;5042775;28;20036;-70
2023/10/19 08:59:02;;;;;;;9.82;2.55;;;17.30;99.90;;;;;;5040602;28;20044;-70
2023/10/19 09:01:29;;;;;;;12.65;3.30;;;17.30;99.90;;;;;;5044217;28;20024;-70
2023/10/19 09:03:58;;;;;;;10.27;2.38;;;17.30;99.90;;;;;;5039609;28;20025;-70
2023/10/19 09:06:24;;;;;;;18.35;3.28;;;17.30;99.90;;;;;;5041227;28;20082;-70
2023/10/19 09:08:50;;;;;;;10.35;2.78;;;17.40;99.90;;;;;;5043106;28;20028;-69
2023/10/19 09:11:20;;;;;;;10.10;2.70;;;17.30;99.90;;;;;;5040508;28;20470;-69
2023/10/19 09:13:52;;;;;;;18.38;2.85;;;17.30;99.90;;;;;;5037517;28;20031;-69
2023/10/19 09:16:20;;;;;;;12.27;2.35;;;17.30;99.90;;;;;;5039954;28;20427;-69
2023/10/19 09:18:47;;;;;;;13.85;2.90;;;17.50;99.90;;;;;;5038060;28;20049;-69
2023/10/19 09:21:25;;;;;;;14.43;3.00;;;17.60;99.90;;;;;;5041209;28;20025;-69
2023/10/19 09:23:52;;;;;;;15.90;2.90;;;17.60;99.90;;;;;;5024436;28;20029;-70
2023/10/19 09:26:19;;;;;;;16.30;2.97;;;17.70;99.90;;;;;;5039676;28;20025;-70
2023/10/19 09:28:50;;;;;;;9.77;2.53;;;17.60;99.90;;;;;;5039425;28;20044;-70
2023/10/19 09:31:16;;;;;;;14.25;2.90;;;17.70;99.90;;;;;;5039777;28;20147;-71
2023/10/19 09:33:47;;;;;;;14.35;2.90;;;17.70;99.90;;;;;;5043779;28;20104;-72
2023/10/19 09:36:13;;;;;;;14.85;3.28;;;17.70;99.90;;;;;;5038497;28;20025;-73
2023/10/19 09:38:51;;;;;;;11.05;2.40;;;17.80;99.90;;;;;;5023043;28;20037;-73
2023/10/19 09:41:30;;;;;;;13.93;3.00;;;17.80;99.90;;;;;;5041082;28;20021;-73
2023/10/19 09:44:04;;;;;;;14.68;2.92;;;17.80;99.90;;;;;;5020077;28;20040;-72
2023/10/19 09:46:33;;;;;;;17.30;2.88;;;17.90;99.90;;;;;;5041605;28;20545;-72
2023/10/19 09:48:59;;;;;;;13.90;3.53;;;17.80;99.90;;;;;;5035912;28;20025;-73
2023/10/19 09:51:25;;;;;;;15.68;2.88;;;17.90;99.90;;;;;;5033481;28;20052;-72
2023/10/19 09:54:00;;;;;;;15.13;2.90;;;17.90;99.90;;;;;;5038616;28;20482;-72
2023/10/19 09:56:31;;;;;;;16.88;3.58;;;17.90;99.90;;;;;;5037740;28;20025;-72
2023/10/19 09:59:07;;;;;;;8.82;2.20;;;17.90;99.90;;;;;;5038443;28;20103;-73
2023/10/19 10:02:12;;;;;;;12.80;3.38;;;18.00;99.90;;;;;;5036322;28;20024;-73
2023/10/19 10:04:39;;;;;;;15.40;3.45;;;18.00;99.90;;;;;;5023105;28;20041;-72
2023/10/19 10:07:07;;;;;;;13.88;2.97;;;18.10;99.90;;;;;;5038614;28;20104;-73
2023/10/19 10:09:44;;;;;;;10.43;2.47;;;18.00;99.90;;;;;;5039159;28;20044;-72
2023/10/19 10:12:27;;;;;;;11.45;2.55;;;18.10;99.90;;;;;;5039182;28;20028;-73
2023/10/19 10:15:02;;;;;;;20.63;3.45;;;18.10;99.90;;;;;;5020979;28;20017;-75
2023/10/19 10:17:28;;;;;;;15.82;2.83;;;18.10;99.90;;;;;;5041501;28;20029;-73
2023/10/19 10:20:13;;;;;;;13.10;3.30;;;18.10;99.90;;;;;;5037554;28;20035;-73
2023/10/19 10:22:41;;;;;;;11.45;2.58;;;18.20;99.90;;;;;;5040681;28;20078;-73
2023/10/19 10:25:07;;;;;;;16.15;3.58;;;18.20;99.90;;;;;;5040763;28;20052;-74
2023/10/19 10:27:36;;;;;;;13.07;3.10;;;18.20;99.90;;;;;;5038247;28;20044;-73
2023/10/19 10:30:07;;;;;;;21.05;3.45;;;18.20;99.90;;;;;;5041015;28;20033;-72
2023/10/19 10:32:54;;;;;;;19.55;3.60;;;18.30;99.90;;;;;;5043721;28;20077;-74
2023/10/19 10:35:41;;;;;;;13.60;3.50;;;18.30;99.90;;;;;;5022775;28;20045;-72
2023/10/19 10:38:14;;;;;;;11.48;3.05;;;18.30;99.90;;;;;;5041931;28;20030;-73
2023/10/19 10:40:47;;;;;;;15.77;3.17;;;18.30;99.90;;;;;;5042606;28;20087;-73
2023/10/19 10:43:13;;;;;;;11.07;2.92;;;18.30;99.90;;;;;;5042066;28;20029;-74
2023/10/19 10:45:39;;;;;;;12.63;3.50;;;18.40;99.90;;;;;;5029299;28;20033;-74
2023/10/19 10:48:16;;;;;;;13.02;3.13;;;18.40;99.90;;;;;;5027422;28;20033;-73
2023/10/19 10:50:42;;;;;;;11.93;2.78;;;18.40;99.90;;;;;;5036929;28;20034;-72
2023/10/19 10:53:08;;;;;;;15.45;2.97;;;18.40;99.90;;;;;;5044034;28;20013;-73
2023/10/19 10:55:34;;;;;;;13.57;2.75;;;18.40;99.90;;;;;;5025999;28;20045;-72
2023/10/19 10:58:00;;;;;;;13.10;2.67;;;18.50;99.90;;;;;;5025247;28;20025;-72
2023/10/19 11:00:26;;;;;;;11.68;3.20;;;18.40;99.90;;;;;;5042762;28;20420;-73
2023/10/19 11:03:04;;;;;;;20.02;2.78;;;18.50;99.90;;;;;;5040874;28;20497;-71
2023/10/19 11:05:35;;;;;;;13.60;2.85;;;18.50;99.90;;;;;;5038750;28;20041;-72
2023/10/19 11:08:17;;;;;;;11.88;2.80;;;18.50;99.90;;;;;;5040670;28;20180;-72
2023/10/19 11:10:47;;;;;;;12.40;3.28;;;18.50;99.90;;;;;;5042889;28;20017;-73
2023/10/19 11:13:15;;;;;;;13.43;3.00;;;18.50;99.90;;;;;;5041436;28;20075;-72
2023/10/19 11:15:53;;;;;;;22.05;3.72;;;18.50;99.90;;;;;;5025980;28;20033;-72
2023/10/19 11:18:43;;;;;;;17.65;3.28;;;18.40;99.90;;;;;;5040592;28;20513;-72
2023/10/19 11:21:11;;;;;;;12.57;3.03;;;18.40;99.90;;;;;;5041645;28;20542;-73
2023/10/19 11:23:49;;;;;;;16.48;3.47;;;18.50;99.90;;;;;;5040889;28;20160;-72
2023/10/19 11:26:22;;;;;;;12.70;3.30;;;18.50;99.90;;;;;;5041095;28;20522;-72
2023/10/19 11:28:57;;;;;;;13.45;2.80;;;18.60;99.90;;;;;;5040013;28;20037;-73
2023/10/19 11:31:24;;;;;;;13.82;3.65;;;18.60;99.90;;;;;;5041452;28;20103;-72
2023/10/19 11:33:55;;;;;;;15.25;3.28;;;18.60;99.90;;;;;;5041513;28;20103;-74
2023/10/19 11:36:25;;;;;;;18.38;3.50;;;18.70;99.90;;;;;;5040130;28;20045;-73
2023/10/19 11:38:53;;;;;;;13.40;3.35;;;18.60;99.90;;;;;;5042744;28;20036;-72
2023/10/19 11:41:19;;;;;;;14.05;2.97;;;18.70;99.90;;;;;;5040237;28;20090;-74
2023/10/19 11:43:46;;;;;;;14.40;3.13;;;18.70;99.90;;;;;;5044785;28;20021;-75
2023/10/19 11:46:12;;;;;;;15.25;3.22;;;18.80;99.90;;;;;;5038849;28;20087;-76
2023/10/19 11:48:39;;;;;;;13.00;3.08;;;18.80;99.90;;;;;;5041598;28;20022;-72
2023/10/19 11:51:06;;;;;;;14.75;3.20;;;18.80;99.90;;;;;;5042308;28;20041;-73
2023/10/19 11:53:34;;;;;;;15.40;2.95;;;18.80;99.90;;;;;;5040837;28;20029;-72
2023/10/19 11:56:12;;;;;;;15.38;3.67;;;18.80;99.90;;;;;;5039670;28;20029;-72
2023/10/19 11:58:41;;;;;;;16.25;3.60;;;18.80;99.90;;;;;;5037927;28;20112;-72
2023/10/19 12:01:11;;;;;;;15.82;3.45;;;18.70;99.90;;;;;;5036633;28;20033;-74
2023/10/19 12:03:41;;;;;;;12.23;2.97;;;18.70;99.90;;;;;;5042231;28;20028;-72
2023/10/19 12:06:12;;;;;;;20.33;3.72;;;18.60;99.90;;;;;;5024251;28;20068;-73
2023/10/19 12:08:38;;;;;;;11.93;3.47;;;18.60;99.90;;;;;;5039868;28;20458;-75
2023/10/19 12:11:10;;;;;;;16.45;3.05;;;18.60;99.90;;;;;;5039134;28;20033;-72
2023/10/19 12:13:37;;;;;;;16.13;3.65;;;18.60;99.90;;;;;;5021614;28;20057;-72
2023/10/19 12:16:04;;;;;;;15.25;3.30;;;18.50;99.90;;;;;;5041077;28;20028;-73
2023/10/19 12:18:30;;;;;;;12.40;3.78;;;18.50;99.90;;;;;;5039511;28;20039;-73
2023/10/19 12:20:59;;;;;;;14.35;3.58;;;18.50;99.90;;;;;;5039117;28;20321;-73
2023/10/19 12:23:25;;;;;;;21.92;3.47;;;18.50;99.90;;;;;;5021290;28;20519;-71
2023/10/19 12:25:51;;;;;;;14.02;3.58;;;18.50;99.90;;;;;;5022703;28;20075;-71
2023/10/19 12:28:18;;;;;;;16.63;3.53;;;18.50;99.90;;;;;;5037692;28;20041;-72
2023/10/19 12:30:44;;;;;;;13.77;3.25;;;18.50;99.90;;;;;;5039372;28;20083;-71
2023/10/19 12:33:14;;;;;;;14.00;3.67;;;18.50;99.90;;;;;;5039897;28;20048;-70
2023/10/19 12:35:53;;;;;;;15.77;3.78;;;18.50;99.90;;;;;;5040924;28;21077;-71
2023/10/19 12:38:19;;;;;;;14.18;3.30;;;18.50;99.90;;;;;;5037059;28;20159;-72
2023/10/19 12:40:47;;;;;;;14.55;3.40;;;18.40;99.90;;;;;;5040331;28;20079;-71
2023/10/19 12:43:14;;;;;;;14.70;3.40;;;18.40;99.90;;;;;;5040806;28;20025;-70
2023/10/19 12:45:40;;;;;;;17.10;4.13;;;18.40;99.90;;;;;;5041863;28;20040;-70
2023/10/19 12:48:07;;;;;;;21.58;4.35;;;18.30;99.90;;;;;;5041092;28;20490;-70
2023/10/19 12:50:37;;;;;;;15.27;3.67;;;18.40;99.90;;;;;;5034547;28;20028;-71
2023/10/19 12:53:03;;;;;;;11.95;3.40;;;18.50;99.90;;;;;;5041882;28;20021;-71
2023/10/19 12:55:30;;;;;;;11.52;3.45;;;18.50;99.90;;;;;;5038376;28;20025;-70
2023/10/19 12:57:57;;;;;;;18.77;4.28;;;18.40;99.90;;;;;;5037539;28;20049;-72
2023/10/19 13:00:23;;;;;;;20.63;4.13;;;18.40;99.90;;;;;;5035096;28;20029;-73
2023/10/19 13:02:50;;;;;;;8.10;2.55;;;18.30;99.90;;;;;;5035846;28;20654;-71
2023/10/19 13:05:18;;;;;;;18.73;4.15;;;18.20;99.90;;;;;;5039250;28;20021;-71
2023/10/19 13:07:44;;;;;;;12.85;3.47;;;18.30;99.90;;;;;;5039787;28;20470;-72
2023/10/19 13:10:13;;;;;;;15.15;3.25;;;18.20;99.90;;;;;;5037009;28;20028;-72
2023/10/19 13:12:40;;;;;;;17.17;3.65;;;18.30;99.90;;;;;;5040604;28;20540;-71
2023/10/19 13:15:12;;;;;;;17.58;4.15;;;18.30;99.90;;;;;;5039509;28;20021;-71
2023/10/19 13:17:42;;;;;;;14.70;3.90;;;18.30;99.90;;;;;;5036826;28;20024;-71
2023/10/19 13:20:21;;;;;;;11.57;3.20;;;18.20;99.90;;;;;;5036625;28;20030;-70
2023/10/19 13:22:47;;;;;;;12.35;3.17;;;18.30;99.90;;;;;;5041757;28;20112;-71